Time;durP1;ratioP1;P1;durP2;ratioP2;P2;SDS_P1;SDS_P2;PMS_P1;PMS_P2;Temp;Humidity;BMP_temperature;BMP_pressure;BME280_temperature;BME280_humidity;BME280_pressure;Samples;Min_cycle;Max_cycle;Signal;HPM_P1;HPM_P2
2022/01/14 00:01:44;;;;;;;194.80;40.07;;;4.80;99.90;;;;;;4897163;29;20463;-87
2022/01/14 00:04:10;;;;;;;159.97;35.83;;;4.80;99.90;;;;;;4880340;29;20052;-86
2022/01/14 00:06:37;;;;;;;182.60;34.40;;;4.80;99.90;;;;;;4895735;29;20057;-86
2022/01/14 00:09:06;;;;;;;181.27;34.77;;;4.80;99.90;;;;;;4880471;29;20040;-86
2022/01/14 00:11:44;;;;;;;191.00;37.10;;;4.70;99.90;;;;;;4896309;29;20108;-86
2022/01/14 00:16:42;;;;;;;129.80;30.97;;;4.90;99.90;;;;;;4895653;29;20417;-87
2022/01/14 00:19:07;;;;;;;197.90;40.93;;;4.90;99.90;;;;;;4881046;29;20181;-85
2022/01/14 00:21:35;;;;;;;176.73;42.33;;;4.90;99.90;;;;;;4896091;29;20135;-86
2022/01/14 00:24:11;;;;;;;177.67;40.10;;;4.90;99.90;;;;;;4895663;29;20166;-86
2022/01/14 00:32:14;;;;;;;184.13;40.23;;;4.90;99.90;;;;;;4895474;29;20080;-86
2022/01/14 00:34:39;;;;;;;166.00;36.63;;;4.90;99.90;;;;;;4897531;29;20083;-86
2022/01/14 00:37:05;;;;;;;146.77;35.03;;;4.90;99.90;;;;;;4895996;29;20064;-86
2022/01/14 00:39:31;;;;;;;147.13;35.50;;;4.90;99.90;;;;;;4880468;29;20045;-86
2022/01/14 00:41:57;;;;;;;122.70;29.90;;;5.00;99.90;;;;;;4896284;29;20105;-86
2022/01/14 00:44:25;;;;;;;132.30;32.87;;;5.00;99.90;;;;;;4880055;29;20044;-86
2022/01/14 00:46:51;;;;;;;123.83;31.03;;;5.00;99.90;;;;;;4880909;29;20041;-86
2022/01/14 00:49:18;;;;;;;122.13;31.17;;;5.00;99.90;;;;;;4895695;29;20063;-85
2022/01/14 00:51:45;;;;;;;118.07;34.27;;;5.10;99.90;;;;;;4896653;29;20381;-86
2022/01/14 00:54:11;;;;;;;98.63;29.23;;;5.10;99.90;;;;;;4896116;29;20063;-86
2022/01/14 00:57:00;;;;;;;90.03;26.33;;;5.10;99.90;;;;;;4880378;29;20409;-86
2022/01/14 00:59:25;;;;;;;113.53;31.00;;;5.20;99.90;;;;;;4896277;29;20060;-86
2022/01/14 01:01:53;;;;;;;99.37;27.50;;;5.20;99.90;;;;;;4897251;29;20048;-86
2022/01/14 01:04:21;;;;;;;77.93;24.70;;;5.20;99.90;;;;;;4895628;29;20055;-86
2022/01/14 01:06:50;;;;;;;62.20;23.03;;;5.30;99.90;;;;;;4905746;29;20127;-86
2022/01/14 01:09:16;;;;;;;75.97;25.50;;;5.30;99.90;;;;;;4896925;29;20052;-86
2022/01/14 01:12:12;;;;;;;54.23;21.23;;;5.30;99.90;;;;;;4880223;29;20073;-86
2022/01/14 01:14:42;;;;;;;58.97;22.20;;;5.30;99.90;;;;;;4894112;29;20169;-86
2022/01/14 01:17:09;;;;;;;51.03;20.27;;;5.40;99.90;;;;;;4896248;29;20056;-86
2022/01/14 01:19:34;;;;;;;54.23;20.43;;;5.40;99.90;;;;;;4882667;29;20056;-86
2022/01/14 01:22:00;;;;;;;46.83;19.97;;;5.40;99.90;;;;;;4899576;29;20059;-86
2022/01/14 01:24:26;;;;;;;39.53;16.27;;;5.50;99.90;;;;;;4899335;29;20049;-87
2022/01/14 01:26:52;;;;;;;47.23;18.30;;;5.50;99.90;;;;;;4900000;29;20063;-86
2022/01/14 01:29:42;;;;;;;42.17;18.53;;;5.50;99.90;;;;;;4899051;29;20135;-86
2022/01/14 01:32:05;;;;;;;45.33;19.57;;;5.50;99.90;;;;;;4883696;29;20147;-86
2022/01/14 01:34:31;;;;;;;52.57;21.43;;;5.50;99.90;;;;;;4898491;29;20053;-86
2022/01/14 01:36:58;;;;;;;48.27;20.57;;;5.50;99.90;;;;;;4899640;29;20138;-86
2022/01/14 01:39:26;;;;;;;47.27;20.47;;;5.60;99.90;;;;;;4898537;29;20481;-86
2022/01/14 01:41:58;;;;;;;50.87;22.07;;;5.50;99.90;;;;;;4898474;29;20536;-86
2022/01/14 01:44:25;;;;;;;47.53;21.10;;;5.60;99.90;;;;;;4900404;29;20052;-87
2022/01/14 01:46:52;;;;;;;52.00;21.73;;;5.60;99.90;;;;;;4898990;29;20055;-86
2022/01/14 01:49:21;;;;;;;45.67;19.30;;;5.60;99.90;;;;;;4899389;29;20117;-86
2022/01/14 01:51:48;;;;;;;58.47;23.87;;;5.70;99.90;;;;;;4898786;29;20493;-86
2022/01/14 01:54:15;;;;;;;49.23;20.90;;;5.60;99.90;;;;;;4898615;29;20060;-86
2022/01/14 01:56:41;;;;;;;55.13;21.60;;;5.60;99.90;;;;;;4898068;29;20494;-86
2022/01/14 01:59:09;;;;;;;49.57;22.30;;;5.60;99.90;;;;;;4898944;29;20045;-87
2022/01/14 02:01:35;;;;;;;48.73;20.93;;;5.60;99.90;;;;;;4897667;29;20053;-86
2022/01/14 02:04:01;;;;;;;59.30;22.80;;;5.60;99.90;;;;;;4900205;29;20063;-86
2022/01/14 02:06:27;;;;;;;56.90;23.00;;;5.60;99.90;;;;;;4899663;29;20497;-86
2022/01/14 02:08:52;;;;;;;55.63;22.77;;;5.60;99.90;;;;;;4899581;29;20045;-86
2022/01/14 02:11:18;;;;;;;51.63;22.77;;;5.60;99.90;;;;;;4898192;29;20049;-86
2022/01/14 02:13:44;;;;;;;47.47;21.30;;;5.60;99.90;;;;;;4900424;29;20063;-86
2022/01/14 02:26:53;;;;;;;49.07;22.80;;;5.70;99.90;;;;;;4898859;29;20125;-86
2022/01/14 02:29:21;;;;;;;52.37;23.13;;;5.70;99.90;;;;;;4881708;29;20461;-86
2022/01/14 02:31:47;;;;;;;52.73;23.07;;;5.70;99.90;;;;;;4897562;29;20096;-86
2022/01/14 02:34:14;;;;;;;68.47;25.67;;;5.70;99.90;;;;;;4899394;29;20053;-86
2022/01/14 02:36:41;;;;;;;73.30;26.43;;;5.60;99.90;;;;;;4898649;29;20516;-86
2022/01/14 02:39:08;;;;;;;76.93;27.07;;;5.60;99.90;;;;;;4897910;29;20044;-86
2022/01/14 02:41:35;;;;;;;76.30;28.03;;;5.50;99.90;;;;;;4899130;29;20045;-86
2022/01/14 02:44:09;;;;;;;78.13;28.07;;;5.50;99.90;;;;;;4881576;29;20044;-86
2022/01/14 02:46:49;;;;;;;84.73;29.07;;;5.40;99.90;;;;;;4897697;29;20060;-86
2022/01/14 02:49:14;;;;;;;80.10;28.30;;;5.40;99.90;;;;;;4899435;29;20084;-86
2022/01/14 02:51:40;;;;;;;86.80;28.93;;;5.40;99.90;;;;;;4897637;29;20084;-86
2022/01/14 02:54:20;;;;;;;90.27;29.50;;;5.40;99.90;;;;;;4882098;29;20123;-86
2022/01/14 02:56:48;;;;;;;74.33;28.03;;;5.40;99.90;;;;;;4882412;29;20053;-86
2022/01/14 02:59:16;;;;;;;81.60;27.33;;;5.30;99.90;;;;;;4897874;29;20392;-86
2022/01/14 03:01:44;;;;;;;82.50;27.73;;;5.40;99.90;;;;;;4897487;29;20421;-86
2022/01/14 03:04:13;;;;;;;81.73;28.53;;;5.40;99.90;;;;;;4896564;29;20052;-86
2022/01/14 03:06:38;;;;;;;82.90;28.13;;;5.30;99.90;;;;;;4880755;29;20445;-86
2022/01/14 03:09:04;;;;;;;82.10;26.57;;;5.40;99.90;;;;;;4897072;29;20083;-86
2022/01/14 03:11:34;;;;;;;71.20;27.27;;;5.30;99.90;;;;;;4897572;29;20512;-86
2022/01/14 03:14:02;;;;;;;74.97;27.20;;;5.40;99.90;;;;;;4896999;29;20080;-86
2022/01/14 03:16:29;;;;;;;77.10;28.03;;;5.30;99.90;;;;;;4897272;29;20045;-86
2022/01/14 03:19:05;;;;;;;76.13;25.33;;;5.30;99.90;;;;;;4897041;29;20075;-86
2022/01/14 03:21:36;;;;;;;73.60;27.00;;;5.40;99.90;;;;;;4898544;29;20048;-86
2022/01/14 03:24:14;;;;;;;79.60;27.67;;;5.40;99.90;;;;;;4903482;29;20088;-86
2022/01/14 03:26:39;;;;;;;77.93;28.53;;;5.40;99.90;;;;;;4897076;29;20488;-86
2022/01/14 03:29:05;;;;;;;81.03;28.40;;;5.40;99.90;;;;;;4881943;29;20048;-86
2022/01/14 03:31:31;;;;;;;71.27;27.17;;;5.40;99.90;;;;;;4881595;29;20048;-86
2022/01/14 03:33:57;;;;;;;72.50;26.00;;;5.40;99.90;;;;;;4880700;29;20048;-86
2022/01/14 03:36:22;;;;;;;72.73;27.33;;;5.40;99.90;;;;;;4896658;29;20048;-87
2022/01/14 03:38:48;;;;;;;69.43;25.43;;;5.40;99.90;;;;;;4898506;29;20049;-86
2022/01/14 03:41:13;;;;;;;73.47;26.93;;;5.30;99.90;;;;;;4895390;29;20052;-86
2022/01/14 03:43:41;;;;;;;79.33;27.77;;;5.30;99.90;;;;;;4896701;29;20052;-86
2022/01/14 03:46:06;;;;;;;76.73;27.80;;;5.30;99.90;;;;;;4897027;29;20131;-86
2022/01/14 03:48:35;;;;;;;73.13;26.00;;;5.30;99.90;;;;;;4895713;29;20159;-86
2022/01/14 03:51:00;;;;;;;84.37;27.40;;;5.30;99.90;;;;;;4897001;29;20048;-86
2022/01/14 03:53:26;;;;;;;77.30;26.63;;;5.30;99.90;;;;;;4880949;29;20196;-86
2022/01/14 03:55:53;;;;;;;79.30;26.17;;;5.30;99.90;;;;;;4895921;29;20056;-86
2022/01/14 03:58:19;;;;;;;80.20;26.37;;;5.30;99.90;;;;;;4896427;29;20056;-86
2022/01/14 04:00:44;;;;;;;80.13;27.17;;;5.30;99.90;;;;;;4880773;29;20052;-86
2022/01/14 04:03:10;;;;;;;74.87;28.17;;;5.30;99.90;;;;;;4897127;29;20060;-87
2022/01/14 04:05:35;;;;;;;81.90;28.67;;;5.30;99.90;;;;;;4896436;29;20048;-86
2022/01/14 04:08:02;;;;;;;79.63;27.90;;;5.30;99.90;;;;;;4912921;29;20475;-86
2022/01/14 04:10:27;;;;;;;79.20;26.47;;;5.30;99.90;;;;;;4896045;29;20131;-86
2022/01/14 04:15:38;;;;;;;78.43;25.93;;;5.30;99.90;;;;;;4880001;29;20588;-86
2022/01/14 04:18:09;;;;;;;78.57;26.93;;;5.30;99.90;;;;;;4897900;29;20492;-86
2022/01/14 04:20:36;;;;;;;73.87;27.33;;;5.30;99.90;;;;;;4896033;29;20056;-86
2022/01/14 04:23:04;;;;;;;70.07;26.07;;;5.30;99.90;;;;;;4896836;29;20051;-86
2022/01/14 04:25:31;;;;;;;78.63;27.80;;;6.20;99.90;;;;;;4896282;29;20488;-86
2022/01/14 04:27:56;;;;;;;75.33;27.07;;;5.40;99.90;;;;;;4896685;29;20071;-86
2022/01/14 04:30:22;;;;;;;74.70;26.23;;;5.40;99.90;;;;;;4880189;29;20049;-86
2022/01/14 04:32:48;;;;;;;73.13;26.73;;;5.30;99.90;;;;;;4902384;29;20390;-86
2022/01/14 04:35:14;;;;;;;72.40;25.90;;;5.30;99.90;;;;;;4880581;29;20053;-86
2022/01/14 04:37:40;;;;;;;69.47;25.93;;;5.30;99.90;;;;;;4896877;29;20127;-86
2022/01/14 04:40:06;;;;;;;74.77;26.33;;;5.30;99.90;;;;;;4880582;29;20100;-86
2022/01/14 04:42:32;;;;;;;78.40;25.93;;;5.30;99.90;;;;;;4880035;29;20052;-86
2022/01/14 04:44:57;;;;;;;79.33;28.07;;;5.30;99.90;;;;;;4879547;29;20449;-86
2022/01/14 04:47:56;;;;;;;77.63;26.90;;;5.30;99.90;;;;;;4895351;29;20048;-86
2022/01/14 04:50:18;;;;;;;74.03;26.10;;;5.30;99.90;;;;;;4894519;29;20060;-86
2022/01/14 04:52:45;;;;;;;71.77;25.17;;;5.30;99.90;;;;;;4895557;29;20044;-86
2022/01/14 04:55:13;;;;;;;75.13;27.67;;;5.30;99.90;;;;;;4896106;29;20049;-86
2022/01/14 04:57:39;;;;;;;79.13;27.20;;;5.30;99.90;;;;;;4895359;29;20053;-86
2022/01/14 05:00:13;;;;;;;72.47;26.53;;;5.30;99.90;;;;;;4895996;29;20049;-86
2022/01/14 05:02:40;;;;;;;75.73;28.43;;;5.30;99.90;;;;;;4897418;29;20037;-86
2022/01/14 05:05:08;;;;;;;72.93;27.47;;;5.30;99.90;;;;;;4893773;29;20477;-86
2022/01/14 05:07:34;;;;;;;76.17;26.27;;;5.30;99.90;;;;;;4895018;29;20051;-86
2022/01/14 05:12:33;;;;;;;76.73;27.83;;;5.20;99.90;;;;;;4894859;29;20063;-86
2022/01/14 05:15:00;;;;;;;86.50;27.63;;;5.20;99.90;;;;;;4895704;29;20060;-86
2022/01/14 05:17:25;;;;;;;84.43;27.30;;;5.20;99.90;;;;;;4879900;29;20488;-86
2022/01/14 05:19:51;;;;;;;83.43;29.13;;;5.20;99.90;;;;;;4896404;29;20060;-86
2022/01/14 05:22:17;;;;;;;84.40;27.80;;;5.20;99.90;;;;;;4895569;29;20446;-86
2022/01/14 05:24:44;;;;;;;75.60;28.20;;;5.20;99.90;;;;;;4895476;29;20053;-86
2022/01/14 05:27:10;;;;;;;77.70;27.10;;;5.20;99.90;;;;;;4879449;29;20092;-87
2022/01/14 05:29:36;;;;;;;69.47;25.50;;;5.20;99.90;;;;;;4896674;29;20127;-86
2022/01/14 05:32:02;;;;;;;71.07;25.67;;;5.20;99.90;;;;;;4880276;29;20201;-86
2022/01/14 05:34:32;;;;;;;75.83;25.63;;;5.20;99.90;;;;;;4894621;29;20098;-86
2022/01/14 05:36:58;;;;;;;71.13;24.93;;;5.20;99.90;;;;;;4880001;29;20052;-86
2022/01/14 05:39:24;;;;;;;60.77;24.03;;;5.20;99.90;;;;;;4895051;29;20044;-85
2022/01/14 05:41:50;;;;;;;63.27;25.70;;;5.20;99.90;;;;;;4900212;29;20051;-85
2022/01/14 05:44:16;;;;;;;64.93;24.47;;;5.20;99.90;;;;;;4895693;29;20056;-85
2022/01/14 05:46:41;;;;;;;59.40;23.33;;;5.20;99.90;;;;;;4894879;29;20040;-85
2022/01/14 05:49:07;;;;;;;61.13;23.43;;;5.20;99.90;;;;;;4895524;29;20112;-85
2022/01/14 05:51:32;;;;;;;64.67;23.90;;;5.20;99.90;;;;;;4895331;29;20067;-85
2022/01/14 05:53:58;;;;;;;55.90;23.83;;;5.20;99.90;;;;;;4896271;29;20100;-85
2022/01/14 05:56:24;;;;;;;65.17;25.20;;;5.20;99.90;;;;;;4896469;29;20099;-85
2022/01/14 05:58:50;;;;;;;68.33;25.17;;;5.20;99.90;;;;;;4895794;29;20422;-85
2022/01/14 06:01:15;;;;;;;71.33;25.03;;;5.20;99.90;;;;;;4894491;29;20459;-85
2022/01/14 06:03:41;;;;;;;69.90;24.20;;;5.20;99.90;;;;;;4895359;29;20053;-85
2022/01/14 06:06:07;;;;;;;63.77;23.20;;;5.10;99.90;;;;;;4897407;29;20057;-85
2022/01/14 06:08:33;;;;;;;73.40;25.63;;;5.10;99.90;;;;;;4897902;29;20481;-85
2022/01/14 06:10:58;;;;;;;72.10;24.97;;;5.10;99.90;;;;;;4898643;29;20045;-85
2022/01/14 06:13:24;;;;;;;67.60;25.10;;;5.10;99.90;;;;;;4882844;29;20044;-85
2022/01/14 06:15:50;;;;;;;67.10;25.40;;;5.10;99.90;;;;;;4897933;29;20512;-85
2022/01/14 06:18:15;;;;;;;64.40;24.67;;;5.10;99.90;;;;;;4898516;29;20052;-85
2022/01/14 06:20:41;;;;;;;67.93;25.33;;;5.10;99.90;;;;;;4898436;29;20135;-85
2022/01/14 06:23:06;;;;;;;60.10;23.70;;;5.10;99.90;;;;;;4898191;29;20041;-87
2022/01/14 06:25:32;;;;;;;59.20;24.13;;;5.10;99.90;;;;;;4898203;29;20108;-86
2022/01/14 06:27:58;;;;;;;60.90;23.47;;;5.10;99.90;;;;;;4882898;29;20055;-88
2022/01/14 06:30:23;;;;;;;68.47;26.40;;;6.40;99.90;;;;;;4897611;29;20052;-86
2022/01/14 06:32:53;;;;;;;61.10;24.30;;;5.20;99.90;;;;;;4899558;29;20416;-86
2022/01/14 06:35:19;;;;;;;65.03;26.40;;;5.20;99.90;;;;;;4882393;29;20077;-86
2022/01/14 06:37:46;;;;;;;59.23;24.07;;;5.20;99.90;;;;;;4897571;29;20438;-85
2022/01/14 06:40:11;;;;;;;58.67;23.43;;;5.10;99.90;;;;;;4899563;29;20405;-85
2022/01/14 06:42:37;;;;;;;61.13;24.33;;;5.10;99.90;;;;;;4899084;29;20052;-85
2022/01/14 06:45:05;;;;;;;59.10;24.60;;;5.20;99.90;;;;;;4897267;29;20040;-84
2022/01/14 06:47:30;;;;;;;58.63;24.47;;;5.10;99.90;;;;;;4897986;29;20044;-85
2022/01/14 06:49:56;;;;;;;60.30;24.57;;;5.20;99.90;;;;;;4902686;29;20052;-85
2022/01/14 06:52:22;;;;;;;52.87;22.23;;;5.10;99.90;;;;;;4882576;29;20049;-90
2022/01/14 06:54:57;;;;;;;51.97;21.50;;;5.00;99.90;;;;;;4898686;29;20401;-89
2022/01/14 06:57:24;;;;;;;57.20;22.20;;;6.40;99.90;;;;;;4894401;29;20077;-93
2022/01/14 06:59:53;;;;;;;52.73;22.73;;;4.80;99.90;;;;;;4906025;29;20113;-87
2022/01/14 07:02:22;;;;;;;54.20;22.07;;;4.50;99.90;;;;;;4883554;29;20150;-90
2022/01/14 07:05:54;;;;;;;54.50;22.80;;;6.00;99.90;;;;;;4879419;29;20057;-93
2022/01/14 07:08:19;;;;;;;41.97;20.83;;;5.50;99.90;;;;;;4878175;29;20061;-91
2022/01/14 07:10:45;;;;;;;49.17;22.83;;;4.80;99.90;;;;;;4879315;29;20045;-90
2022/01/14 07:13:11;;;;;;;49.57;22.27;;;5.50;99.90;;;;;;4879320;29;20405;-90
2022/01/14 07:16:01;;;;;;;44.23;21.73;;;5.00;99.90;;;;;;4879936;29;20591;-96
2022/01/14 07:18:37;;;;;;;65.47;34.83;;;4.60;99.90;;;;;;4877896;29;20109;-90
2022/01/14 07:21:02;;;;;;;42.63;21.97;;;4.70;99.90;;;;;;4878745;29;20056;-90
2022/01/14 07:23:38;;;;;;;;;;;;;;;;;;;;;
2022/01/14 07:26:25;;;;;;;46.10;20.97;;;4.80;99.90;;;;;;4876707;29;20148;-91
2022/01/14 07:28:53;;;;;;;45.33;22.03;;;4.80;99.90;;;;;;4879600;29;20053;-90
2022/01/14 07:31:25;;;;;;;46.00;25.00;;;5.60;99.90;;;;;;4878693;29;20115;-89
2022/01/14 07:33:57;;;;;;;52.17;26.33;;;5.20;99.90;;;;;;4878439;29;20045;-89
2022/01/14 07:36:25;;;;;;;46.03;22.00;;;5.10;99.90;;;;;;4878690;29;20089;-90
2022/01/14 07:38:56;;;;;;;42.53;20.50;;;4.70;99.90;;;;;;4879331;29;20534;-89
2022/01/14 07:41:22;;;;;;;44.27;20.07;;;5.70;99.90;;;;;;4877404;29;20143;-89
2022/01/14 07:43:51;;;;;;;39.43;21.83;;;5.40;99.90;;;;;;4878749;29;20083;-89
2022/01/14 07:46:22;;;;;;;43.67;22.60;;;5.30;99.90;;;;;;4877683;29;20151;-90
2022/01/14 07:48:54;;;;;;;39.60;21.03;;;4.90;99.90;;;;;;4878679;29;20084;-88
2022/01/14 07:51:23;;;;;;;49.17;23.53;;;5.00;99.90;;;;;;4878329;29;20072;-89
2022/01/14 07:54:06;;;;;;;42.37;19.50;;;4.80;99.90;;;;;;4879679;29;20144;-90
2022/01/14 07:56:45;;;;;;;39.17;20.58;;;5.70;99.90;;;;;;4883368;29;20056;-89
2022/01/14 07:59:24;;;;;;;42.07;22.00;;;5.90;99.90;;;;;;4885719;29;20081;-90
2022/01/14 08:02:00;;;;;;;39.77;20.93;;;5.30;99.90;;;;;;4888323;29;20127;-89
2022/01/14 08:08:07;;;;;;;40.43;19.97;;;5.30;99.90;;;;;;4877581;29;20063;-93
2022/01/14 08:10:37;;;;;;;38.40;18.63;;;4.60;99.90;;;;;;4863516;29;20053;-91
2022/01/14 08:13:03;;;;;;;38.03;21.03;;;5.20;99.90;;;;;;4862293;29;20053;-89
2022/01/14 08:15:38;;;;;;;40.93;19.17;;;6.50;99.90;;;;;;4861772;29;20055;-89
2022/01/14 08:18:09;;;;;;;37.57;18.83;;;5.30;99.90;;;;;;4862959;29;20057;-89
2022/01/14 08:20:38;;;;;;;38.50;19.50;;;6.30;99.90;;;;;;4862400;29;20549;-90
2022/01/14 08:23:10;;;;;;;35.83;18.97;;;5.30;99.90;;;;;;4861803;29;20442;-91
2022/01/14 08:25:41;;;;;;;38.07;19.53;;;5.90;99.90;;;;;;4861201;29;20045;-89
2022/01/14 08:28:07;;;;;;;36.37;18.97;;;5.10;99.90;;;;;;4861564;29;20048;-89
2022/01/14 08:30:33;;;;;;;39.10;19.13;;;5.30;99.90;;;;;;4861594;29;20053;-90
2022/01/14 08:33:04;;;;;;;37.07;17.67;;;5.20;99.90;;;;;;4862601;29;20124;-91
2022/01/14 08:35:36;;;;;;;31.50;17.60;;;6.20;99.90;;;;;;4861910;29;20057;-90
2022/01/14 08:38:07;;;;;;;38.50;18.53;;;5.90;99.90;;;;;;4861634;29;20052;-91
2022/01/14 08:40:36;;;;;;;37.10;18.77;;;5.30;99.90;;;;;;4859296;29;20569;-90
2022/01/14 08:43:14;;;;;;;36.97;18.77;;;6.10;99.90;;;;;;4861883;29;20041;-92
2022/01/14 08:45:58;;;;;;;37.97;19.43;;;5.80;99.90;;;;;;4865195;29;20041;-93
2022/01/14 08:48:30;;;;;;;33.50;15.95;;;5.30;99.90;;;;;;4861161;29;20125;-90
2022/01/14 08:51:11;;;;;;;37.27;19.57;;;5.40;99.90;;;;;;4860913;29;20561;-93
2022/01/14 08:53:40;;;;;;;39.63;17.87;;;5.80;99.90;;;;;;4939622;23;20504;-92
2022/01/14 08:56:12;;;;;;;37.43;18.80;;;4.70;99.90;;;;;;4916073;29;20052;-96
2022/01/14 09:12:05;;;;;;;34.23;16.00;;;5.70;99.90;;;;;;4068220;27;20055;-93
2022/01/14 09:14:34;;;;;;;30.37;16.40;;;5.80;99.90;;;;;;4903382;29;20056;-96
2022/01/14 09:17:03;;;;;;;31.27;15.53;;;6.80;99.90;;;;;;4889240;29;20052;-90
2022/01/14 09:19:29;;;;;;;31.07;15.60;;;5.80;99.90;;;;;;4887765;29;20041;-87
2022/01/14 09:21:57;;;;;;;30.10;15.63;;;5.70;99.90;;;;;;4889574;29;20171;-89
2022/01/14 09:24:38;;;;;;;34.53;16.77;;;5.70;99.90;;;;;;4897294;29;20180;-87
2022/01/14 09:27:04;;;;;;;31.23;15.03;;;5.70;99.90;;;;;;4890863;29;20485;-86
2022/01/14 09:29:29;;;;;;;28.70;14.13;;;5.90;99.90;;;;;;4889997;29;20229;-87
2022/01/14 09:31:58;;;;;;;26.50;13.53;;;5.90;99.90;;;;;;4904038;29;20143;-87
2022/01/14 09:34:23;;;;;;;28.33;15.00;;;5.70;99.90;;;;;;4888487;29;20730;-87
2022/01/14 09:36:49;;;;;;;32.47;15.30;;;6.00;99.90;;;;;;4891032;29;20171;-87
2022/01/14 09:42:23;;;;;;;32.83;14.80;;;6.10;99.90;;;;;;4892376;23;20048;-91
2022/01/14 09:44:54;;;;;;;30.05;14.13;;;7.50;99.90;;;;;;4910024;29;20056;-86
2022/01/14 09:47:39;;;;;;;29.33;13.93;;;7.20;99.90;;;;;;4886317;29;20049;-94
2022/01/14 09:50:13;;;;;;;28.00;13.00;;;6.30;99.90;;;;;;4911126;29;20096;-92
2022/01/14 09:52:39;;;;;;;25.87;12.70;;;7.10;99.90;;;;;;4894498;29;20119;-91
2022/01/14 09:55:11;;;;;;;29.37;14.30;;;6.00;99.90;;;;;;4903026;29;20067;-89
2022/01/14 09:57:48;;;;;;;27.23;13.30;;;7.00;99.90;;;;;;4900448;29;20396;-90
2022/01/14 10:05:04;;;;;;;27.53;14.27;;;6.40;99.90;;;;;;5171649;23;20050;-96
2022/01/14 10:07:34;;;;;;;24.30;12.03;;;6.70;99.90;;;;;;4895599;29;20143;-88
2022/01/14 10:10:02;;;;;;;25.30;12.40;;;6.20;99.90;;;;;;4901872;29;20040;-89
2022/01/14 10:12:33;;;;;;;25.00;12.83;;;6.30;99.90;;;;;;4918512;29;20100;-88
2022/01/14 10:15:08;;;;;;;26.93;13.47;;;6.50;99.90;;;;;;4899743;29;20056;-88
2022/01/14 10:17:45;;;;;;;27.27;13.30;;;6.50;99.90;;;;;;4905733;29;20044;-89
2022/01/14 10:20:14;;;;;;;28.43;13.23;;;6.50;99.90;;;;;;4901583;29;20064;-88
2022/01/14 10:22:46;;;;;;;31.73;12.63;;;6.60;99.90;;;;;;4901171;29;20055;-88
2022/01/14 10:25:15;;;;;;;24.63;12.70;;;6.60;99.90;;;;;;4901548;29;20048;-88
2022/01/14 10:27:41;;;;;;;28.20;13.40;;;6.60;99.90;;;;;;4895846;29;20044;-88
2022/01/14 10:30:09;;;;;;;24.10;11.87;;;7.70;99.90;;;;;;4901570;29;20123;-91
2022/01/14 10:32:37;;;;;;;24.57;12.20;;;6.70;99.90;;;;;;4900712;29;20135;-88
2022/01/14 10:35:08;;;;;;;27.53;13.90;;;6.50;99.90;;;;;;4889792;29;20063;-87
2022/01/14 10:37:35;;;;;;;26.50;12.27;;;6.60;99.90;;;;;;4897436;29;20131;-88
2022/01/14 10:40:04;;;;;;;21.97;12.07;;;6.70;99.90;;;;;;4900627;29;20048;-88
2022/01/14 10:42:34;;;;;;;23.63;10.97;;;6.70;99.90;;;;;;4900005;29;20147;-88
2022/01/14 10:45:20;;;;;;;19.13;10.80;;;6.70;99.90;;;;;;4901398;29;20062;-87
2022/01/14 10:48:01;;;;;;;25.33;10.53;;;6.70;99.90;;;;;;4900393;29;20051;-87
2022/01/14 10:50:29;;;;;;;25.53;13.37;;;6.70;99.90;;;;;;4899717;29;20051;-87
2022/01/14 10:52:54;;;;;;;25.70;12.23;;;6.80;99.90;;;;;;4897868;29;20052;-87
2022/01/14 10:55:36;;;;;;;24.97;12.53;;;6.80;99.90;;;;;;4891675;29;20055;-87
2022/01/14 10:58:04;;;;;;;22.63;10.57;;;7.70;99.90;;;;;;4887527;29;20052;-87
2022/01/14 11:00:39;;;;;;;24.20;10.60;;;6.80;99.90;;;;;;4870892;29;20069;-87
2022/01/14 11:03:04;;;;;;;21.17;9.73;;;6.80;99.90;;;;;;4852966;29;20044;-88
2022/01/14 11:05:31;;;;;;;27.27;16.13;;;8.00;99.90;;;;;;4853480;29;20087;-88
2022/01/14 11:07:57;;;;;;;20.23;9.47;;;6.80;99.90;;;;;;4855831;29;20045;-88
2022/01/14 11:10:33;;;;;;;25.97;11.63;;;6.80;99.90;;;;;;4852821;29;20773;-88
2022/01/14 11:13:01;;;;;;;18.57;8.87;;;6.80;99.90;;;;;;4853794;29;20053;-93
2022/01/14 11:15:29;;;;;;;18.37;8.33;;;6.80;99.90;;;;;;4864286;29;20108;-92
2022/01/14 11:18:01;;;;;;;17.40;8.80;;;6.80;99.90;;;;;;4861468;29;20056;-92
2022/01/14 11:23:14;;;;;;;22.83;9.17;;;7.90;99.90;;;;;;4861598;29;20049;-90
2022/01/14 11:23:29;;;;;;;17.47;7.67;;;6.60;99.90;;;;;;4862646;29;20049;-90
2022/01/14 11:26:02;;;;;;;19.23;8.30;;;6.50;99.90;;;;;;4869092;29;20052;-90
2022/01/14 11:28:41;;;;;;;19.20;9.20;;;6.70;99.90;;;;;;4863543;29;20049;-96
2022/01/14 11:31:30;;;;;;;18.80;8.73;;;7.20;99.90;;;;;;4865543;29;20049;-91
2022/01/14 11:33:57;;;;;;;19.93;8.53;;;5.90;99.90;;;;;;4861836;29;20045;-91
2022/01/14 11:36:23;;;;;;;21.63;8.60;;;6.70;99.90;;;;;;4862700;29;20052;-88
2022/01/14 11:38:49;;;;;;;19.70;8.10;;;6.60;99.90;;;;;;4862086;29;20155;-88
2022/01/14 11:41:18;;;;;;;18.40;8.67;;;6.70;99.90;;;;;;4861637;29;20268;-89
2022/01/14 11:43:45;;;;;;;20.27;8.53;;;6.70;99.90;;;;;;4861635;29;20063;-90
2022/01/14 11:46:14;;;;;;;16.20;7.70;;;6.70;99.90;;;;;;4861663;29;20450;-89
2022/01/14 11:48:51;;;;;;;19.67;8.40;;;6.60;99.90;;;;;;4862578;29;20049;-90
2022/01/14 11:51:23;;;;;;;21.23;8.07;;;6.60;99.90;;;;;;4862756;29;20061;-90
2022/01/14 11:53:54;;;;;;;16.73;7.13;;;6.50;99.90;;;;;;4862119;29;20055;-90
2022/01/14 11:56:32;;;;;;;16.97;7.07;;;7.10;99.90;;;;;;4862945;29;20048;-90
2022/01/14 11:59:23;;;;;;;17.17;7.43;;;6.80;99.90;;;;;;4863059;29;20056;-89
2022/01/14 12:01:51;;;;;;;16.80;7.33;;;6.80;99.90;;;;;;4851902;29;20493;-89
2022/01/14 12:05:21;;;;;;;22.20;11.77;;;6.80;99.90;;;;;;4862151;29;20437;-89
2022/01/14 12:08:11;;;;;;;24.17;12.87;;;6.80;99.90;;;;;;4859027;29;20052;-90
2022/01/14 12:10:42;;;;;;;21.47;11.53;;;6.80;99.90;;;;;;4862814;29;20466;-89
2022/01/14 12:18:58;;;;;;;47.93;34.80;;;6.80;99.90;;;;;;4862523;29;20049;-87
2022/01/14 12:21:44;;;;;;;52.40;40.03;;;6.90;99.90;;;;;;4861338;29;20049;-88
2022/01/14 12:24:16;;;;;;;54.13;36.87;;;6.90;99.90;;;;;;4862559;29;20052;-89
2022/01/14 12:26:54;;;;;;;60.30;40.33;;;6.90;99.90;;;;;;4862445;29;20057;-89
2022/01/14 12:29:30;;;;;;;21.90;12.97;;;7.00;99.90;;;;;;4861801;29;20045;-89
2022/01/14 12:32:13;;;;;;;24.17;13.97;;;7.00;99.90;;;;;;4862605;29;20041;-90
2022/01/14 12:34:57;;;;;;;18.83;10.00;;;7.00;99.90;;;;;;4874804;29;20144;-89
2022/01/14 12:37:26;;;;;;;15.73;7.43;;;8.10;99.90;;;;;;4862138;29;20135;-89
2022/01/14 12:39:52;;;;;;;20.03;7.97;;;7.00;99.90;;;;;;4862494;29;20045;-90
2022/01/14 12:42:19;;;;;;;17.43;7.83;;;7.00;99.90;;;;;;4862745;29;20049;-90
2022/01/14 12:44:47;;;;;;;20.53;11.47;;;7.00;99.90;;;;;;4864489;29;20049;-89
2022/01/14 12:47:20;;;;;;;23.07;8.40;;;7.00;99.90;;;;;;4865670;29;20518;-90
2022/01/14 12:49:46;;;;;;;15.63;6.85;;;7.90;99.90;;;;;;4868787;29;20049;-88
2022/01/14 12:52:57;;;;;;;14.87;6.57;;;6.90;99.90;;;;;;4862109;29;20076;-94
2022/01/14 12:55:36;;;;;;;17.80;9.33;;;7.00;99.90;;;;;;4771492;29;20140;-88
2022/01/14 12:58:04;;;;;;;19.50;11.00;;;6.80;99.90;;;;;;4752791;30;20495;-88
2022/01/14 13:00:30;;;;;;;27.47;16.23;;;6.30;99.90;;;;;;4752125;30;20495;-87
2022/01/14 13:02:56;;;;;;;20.87;9.37;;;7.80;99.90;;;;;;4751800;30;20052;-88
2022/01/14 13:05:24;;;;;;;17.00;7.70;;;7.00;99.90;;;;;;4766785;30;20063;-88
2022/01/14 13:07:49;;;;;;;19.33;8.70;;;7.00;99.90;;;;;;4839683;29;20054;-87
2022/01/14 13:10:17;;;;;;;18.73;8.10;;;7.00;99.90;;;;;;4842486;29;20050;-88
2022/01/14 13:12:44;;;;;;;16.03;6.63;;;7.00;99.90;;;;;;4844018;29;20041;-87
2022/01/14 13:15:14;;;;;;;16.97;6.33;;;7.00;99.90;;;;;;4846274;29;20057;-87
2022/01/14 13:17:49;;;;;;;17.50;6.20;;;7.00;99.90;;;;;;4846689;29;20054;-87
2022/01/14 13:20:17;;;;;;;16.80;6.40;;;6.90;99.90;;;;;;4846879;29;20144;-88
2022/01/14 13:22:45;;;;;;;22.17;12.00;;;6.90;99.90;;;;;;4847141;29;20045;-87
2022/01/14 13:25:17;;;;;;;17.10;5.97;;;6.90;99.90;;;;;;4863094;29;20509;-87
2022/01/14 13:27:49;;;;;;;25.50;18.00;;;6.90;99.90;;;;;;4847050;29;20073;-87
2022/01/14 13:30:20;;;;;;;17.67;6.47;;;6.90;99.90;;;;;;4846736;29;20089;-87
2022/01/14 13:32:47;;;;;;;18.70;6.13;;;7.10;99.90;;;;;;4846684;29;20081;-88
2022/01/14 13:35:26;;;;;;;17.10;6.60;;;6.90;99.90;;;;;;4846557;29;20052;-87
2022/01/14 13:37:55;;;;;;;14.73;6.87;;;6.90;99.90;;;;;;4846192;29;20128;-87
2022/01/14 13:40:23;;;;;;;18.47;6.60;;;6.90;99.90;;;;;;4862899;29;20056;-87
2022/01/14 13:43:32;;;;;;;15.77;6.40;;;6.80;99.90;;;;;;4852156;29;20070;-88
2022/01/14 13:46:06;;;;;;;19.73;6.17;;;6.80;99.90;;;;;;4828835;29;20148;-88
2022/01/14 13:48:50;;;;;;;18.80;6.40;;;6.80;99.90;;;;;;4846634;29;20190;-88